Terminal Aerodrome Forecast
Issued by NWS Portland, OR

Home | Current Version | Previous Version | Text Only | Print | Product List | Glossary On
Versions: 1 2 3 4 5 6 7 8 9 10 11 12 13 14 15 16 17 18 19 20 21 22 23 24 25 26 27 28 29 30
667
FTUS46 KPQR 061120
TAFTTD
TAF
KTTD 061120Z 0612/0712 22007KT P6SM SCT050
     FM061700 20003KT P6SM SCT050
     FM070300 10005KT P6SM SCT100
     FM070900 09012KT P6SM SCT100=

USA.gov is the U.S. government's official web portal to all federal, state and local government web resources and services.